Impacts METAR Board
IDs:

KPHL - Philadelphia Intl, PA, US

Updated at: 1300 UTC 15 Aug 2018
Potential Impact None Slight Moderate High
Time 15/01Z 15/02Z 15/03Z 15/04Z 15/05Z 15/06Z 15/07Z 15/08Z 15/09Z 15/10Z 15/11Z 15/12Z 15/13Z
Temp75 74 74 73 72 72 73 72 73 73 73 74 77
Dewpt68 67 66 67 68 68 66 66 65 65 65 65 65
Altim29.89 29.90 29.91 29.92 29.91 29.91 29.90 29.91 29.91 29.92 29.93 29.94 29.95
VIS10 10 10 6 8 10 10 10 10 10 10 10 10
CIG90 130 110 55 110 90 85 110 80 95 100 -- --
CoverBKNBKNOVCOVCOVCBKNOVCOVCOVCBKNBKNSCTFEW
FltCatVFRVFRVFRVFRVFRVFRVFRVFRVFRVFRVFRVFRVFR
WX-------RA------------------
WDir240260270240240240250250280250290270300
WSpd11 8 9 11 10 10 9 8 6 7 6 7 9
WGst-- -- -- 19 -- -- -- -- -- -- -- -- --
Raw hourly METARs
KPHL 150054Z 24011KT 10SM SCT040 SCT070 BKN090 BKN150 24/20 A2989 RMK AO2 SLP121 T02390200 $
KPHL 150154Z 26008KT 10SM SCT040 SCT070 BKN130 23/19 A2990 RMK AO2 SLP125 T02330194 $
KPHL 150254Z 27009KT 10SM SCT070 BKN110 OVC160 23/19 A2991 RMK AO2 SLP128 T02330189 51012 $
KPHL 150354Z 24011G19KT 6SM -RA BKN055 OVC070 23/19 A2992 RMK AO2 RAB39 SLP130 P0001 T02280194 $
KPHL 150454Z 24010KT 8SM FEW080 BKN110 OVC180 22/20 A2991 RMK AO2 RAE14 SLP127 P0001 T02220200 402830200 $
KPHL 150554Z 24010KT 10SM BKN090 BKN140 BKN200 22/20 A2991 RMK AO2 SLP126 60002 T02220200 10244 20217 58001 $
KPHL 150654Z 25009KT 10SM BKN085 OVC110 23/19 A2990 RMK AO2 SLP125 T02280189 $
KPHL 150754Z 25008KT 10SM SCT080 BKN110 OVC200 22/19 A2991 RMK AO2 SLP127 T02220189 $
KPHL 150854Z 28006KT 10SM BKN080 BKN110 OVC160 23/18 A2991 RMK AO2 SLP127 T02280183 53001 $
KPHL 150954Z 25007KT 10SM BKN095 BKN140 BKN200 23/18 A2992 RMK AO2 SLP131 T02280183 $
KPHL 151054Z 29006KT 10SM BKN100 BKN150 BKN200 23/18 A2993 RMK AO2 SLP136 T02280183 $
KPHL 151154Z 27007KT 10SM FEW100 FEW150 SCT200 23/18 A2994 RMK AO2 SLP139 70073 T02330183 10233 20222 51012 $
KPHL 151254Z 30009KT 10SM FEW150 FEW200 25/18 A2995 RMK AO2 SLP142 T02500183



Page loaded:  13:31 UTC  |   06:31 AM Pacific  |   07:31 AM Mountain  |   08:31 AM Central  |   09:31 AM Eastern

 

ADVISORIES

FORECASTS

FORECASTS

OBSERVATIONS

USER TOOLS

ABOUT US